Friday, November 24, 2017, 12:33 AM EST
Back to Local

KTHV, York Airport

Location: Spring Grove, PA, United States Lat: 39.917
Local Time: 12:33 AM EST ( 5:33 GMT) Lon: -76.883
Time Zone: US/Eastern Elev: 478 ft

Show me the last for .
Show Decoded

2017-11-23 23:53 METAR KTHV 240453Z AUTO 00000KT 10SM CLR M04/M06 A3005 RMK AO2 SLP182 T10441056
                 400561072 =
2017-11-23 22:53 METAR KTHV 240353Z AUTO 00000KT 10SM CLR M05/M06 A3005 RMK AO2 SLP185 T10501056
                 =
2017-11-23 21:53 METAR KTHV 240253Z AUTO 00000KT 10SM CLR M04/M05 A3005 RMK AO2 SLP183 T10441050
                 53004 =
2017-11-23 20:53 METAR KTHV 240153Z AUTO 00000KT 10SM CLR M04/M05 A3003 RMK AO2 SLP179 T10441050
                 =
2017-11-23 19:53 METAR KTHV 240053Z AUTO 00000KT 10SM CLR M02/M04 A3002 RMK AO2 SLP175 T10221044
                 =
2017-11-23 18:53 METAR KTHV 232353Z AUTO 00000KT 10SM CLR M03/M05 A3003 RMK AO2 SLP180 T10281050
                 10056 21033 58002 =
2017-11-23 17:53 METAR KTHV 232253Z AUTO 00000KT 10SM CLR M01/M05 A3005 RMK AO2 SLP184 T10111050
                 =
2017-11-23 16:53 METAR KTHV 232153Z AUTO 00000KT 10SM CLR 02/M04 A3004 RMK AO2 SLP179 T00221044 =
2017-11-23 15:53 METAR KTHV 232053Z AUTO 00000KT 10SM CLR 04/M04 A3004 RMK AO2 SLP180 T00441044
                 55012 =
2017-11-23 14:53 METAR KTHV 231953Z AUTO VRB04KT 10SM CLR 05/M05 A3004 RMK AO2 SLP178 T00501050 =
2017-11-23 13:53 METAR KTHV 231853Z AUTO 36003KT 10SM CLR 05/M05 A3006 RMK AO2 SLP187 T00501050 =
2017-11-23 12:53 METAR KTHV 231753Z AUTO 32007KT 10SM CLR 04/M05 A3008 RMK AO2 SLP192 T00441050
                 10050 21067 58027 =
2017-11-23 11:53 METAR KTHV 231653Z AUTO VRB06KT 10SM CLR 04/M05 A3011 RMK AO2 SLP201 T00391050 =
2017-11-23 10:53 METAR KTHV 231553Z AUTO 32004KT 10SM CLR 03/M05 A3014 RMK AO2 SLP212 T00281050 =
2017-11-23 09:53 METAR KTHV 231453Z AUTO VRB05KT 10SM CLR 02/M06 A3016 RMK AO2 SLP218 T00171056
                 50000 =
2017-11-23 08:53 METAR KTHV 231353Z AUTO 29004KT 10SM CLR 00/M04 A3016 RMK AO2 SLP220 T00001044 =
2017-11-23 07:53 METAR KTHV 231253Z AUTO 00000KT 10SM CLR M04/M06 A3017 RMK AO2 SLP224 T10441061
                 =
2017-11-23 06:53 METAR KTHV 231153Z AUTO 32003KT 10SM CLR M07/M07 A3015 RMK AO2 SLP220 I1000
                 I6000 T10671072 11022 21072 53006 =
2017-11-23 05:53 METAR KTHV 231053Z AUTO 00000KT 10SM CLR M06/M07 A3014 RMK AO2 SLP214 T10611072
                 =
2017-11-23 04:53 METAR KTHV 230953Z AUTO 00000KT 10SM CLR M06/M07 A3014 RMK AO2 SLP213 T10561072
                 =
2017-11-23 03:53 METAR KTHV 230853Z AUTO 27003KT 10SM CLR M06/M07 A3014 RMK AO2 SLP213 T10611067
                 55007 =
2017-11-23 02:53 METAR KTHV 230753Z AUTO 31004KT 10SM CLR M02/M06 A3013 RMK AO2 SLP211 T10221061
                 =
2017-11-23 01:53 METAR KTHV 230653Z AUTO 28003KT 10SM CLR M03/M06 A3014 RMK AO2 SLP213 T10281056
                 =
2017-11-23 00:53 METAR KTHV 230553Z AUTO 00000KT 10SM CLR M03/M06 A3016 RMK AO2 SLP219 T10331056
                 10028 21033 57001 =

Support USWX by starting your Amazon purchase here.